Time;durP1;ratioP1;P1;durP2;ratioP2;P2;SDS_P1;SDS_P2;PMS_P1;PMS_P2;Temp;Humidity;BMP_temperature;BMP_pressure;BME280_temperature;BME280_humidity;BME280_pressure;Samples;Min_cycle;Max_cycle;Signal;HPM_P1;HPM_P2
2022/02/22 00:02:09;;;;;;;22.10;16.20;;;;;;;7.72;63.45;93600.75;5056455;28;20119;-70
2022/02/22 00:04:36;;;;;;;25.58;16.98;;;;;;;7.59;64.00;93580.34;5072769;28;20552;-68
2022/02/22 00:07:03;;;;;;;20.70;16.45;;;;;;;7.76;63.89;93584.78;5040208;28;20047;-68
2022/02/22 00:09:29;;;;;;;24.95;15.23;;;;;;;7.84;63.72;93578.94;5072757;28;20031;-69
2022/02/22 00:11:54;;;;;;;20.08;14.65;;;;;;;7.79;64.02;93579.34;5056201;28;20071;-68
2022/02/22 00:14:20;;;;;;;19.30;13.68;;;;;;;7.86;64.48;93589.16;5073930;28;20043;-68
2022/02/22 00:16:45;;;;;;;16.95;12.23;;;;;;;7.86;64.64;93589.97;5073956;28;20036;-68
2022/02/22 00:19:11;;;;;;;15.10;11.52;;;;;;;7.99;64.05;93574.13;5055924;28;20031;-68
2022/02/22 00:21:36;;;;;;;17.58;11.32;;;;;;;7.96;64.26;93570.03;5072839;28;20399;-68
2022/02/22 00:24:01;;;;;;;19.20;11.10;;;;;;;8.01;64.54;93567.03;5073807;28;20032;-68
2022/02/22 00:26:27;;;;;;;20.42;10.30;;;;;;;7.99;64.90;93577.50;5074243;28;20025;-68
2022/02/22 00:28:52;;;;;;;15.15;11.00;;;;;;;7.97;64.86;93571.69;5073721;28;20085;-69
2022/02/22 00:31:18;;;;;;;15.73;10.27;;;;;;;7.96;64.82;93551.13;5072413;28;20020;-68
2022/02/22 00:33:44;;;;;;;14.63;10.85;;;;;;;8.09;64.55;93558.56;5072318;28;20539;-69
2022/02/22 00:36:10;;;;;;;13.88;10.43;;;;;;;8.20;63.64;93551.44;5073729;28;20051;-69
2022/02/22 00:38:35;;;;;;;13.85;10.57;;;;;;;8.29;63.27;93540.22;5055746;28;20028;-68
2022/02/22 00:41:02;;;;;;;13.65;10.30;;;;;;;8.41;63.18;93551.25;5055632;28;20059;-69
2022/02/22 00:43:28;;;;;;;15.65;11.68;;;;;;;8.38;63.02;93561.81;5072470;28;20128;-69
2022/02/22 00:45:53;;;;;;;13.73;10.05;;;;;;;8.33;63.36;93535.59;5072354;28;20037;-69
2022/02/22 00:48:19;;;;;;;13.15;10.38;;;;;;;8.36;63.31;93532.72;5055510;28;20017;-68
2022/02/22 00:50:44;;;;;;;12.90;10.45;;;;;;;8.40;63.13;93552.19;5085663;28;20059;-68
2022/02/22 00:53:10;;;;;;;17.10;10.00;;;;;;;8.36;63.26;93540.47;5093672;28;20112;-68
2022/02/22 00:55:35;;;;;;;16.42;9.93;;;;;;;8.45;63.18;93537.03;5075517;28;20521;-69
2022/02/22 00:58:00;;;;;;;14.35;9.40;;;;;;;8.40;62.82;93521.13;5092543;28;20036;-68
2022/02/22 01:00:26;;;;;;;12.38;8.50;;;;;;;8.53;62.97;93540.69;5092274;28;20032;-69
2022/02/22 01:02:52;;;;;;;13.40;9.50;;;;;;;8.63;62.83;93531.88;5091276;28;20024;-68
2022/02/22 01:05:17;;;;;;;11.02;8.10;;;;;;;8.63;62.17;93528.47;5091965;28;20055;-69
2022/02/22 01:07:43;;;;;;;12.95;8.15;;;;;;;8.72;61.86;93533.63;5092077;28;20020;-68
2022/02/22 01:10:08;;;;;;;17.83;11.35;;;;;;;8.75;62.05;93532.50;5093390;28;20036;-68
2022/02/22 01:12:34;;;;;;;13.35;10.90;;;;;;;8.86;61.89;93540.06;5092007;28;20028;-69
2022/02/22 01:14:59;;;;;;;16.92;10.65;;;;;;;8.92;61.39;93531.69;5093215;28;20486;-68
2022/02/22 01:17:25;;;;;;;14.30;10.20;;;;;;;8.92;61.42;93534.28;5093093;28;20047;-70
2022/02/22 01:19:50;;;;;;;15.18;10.85;;;;;;;8.89;61.62;93526.81;5074971;28;20036;-68
2022/02/22 01:22:16;;;;;;;16.50;10.35;;;;;;;8.83;61.77;93530.00;5093041;28;20462;-68
2022/02/22 01:24:41;;;;;;;15.73;10.35;;;;;;;8.81;62.07;93531.09;5091568;28;20035;-69
2022/02/22 01:27:06;;;;;;;14.60;10.57;;;;;;;8.81;61.88;93533.69;5092951;28;20020;-69
2022/02/22 01:29:32;;;;;;;16.00;11.80;;;;;;;8.87;62.19;93539.09;5074742;28;20036;-68
2022/02/22 01:31:57;;;;;;;17.85;12.77;;;;;;;8.85;61.56;93528.06;5091553;28;20043;-68
2022/02/22 01:34:23;;;;;;;15.48;11.50;;;;;;;8.86;61.55;93531.44;5074662;28;20035;-68
2022/02/22 01:36:48;;;;;;;14.95;11.55;;;;;;;8.69;61.98;93533.06;5092542;28;20502;-69
2022/02/22 01:39:14;;;;;;;15.27;10.30;;;;;;;8.71;62.68;93550.09;5092770;28;20024;-68
2022/02/22 01:41:40;;;;;;;23.08;15.95;;;;;;;8.58;62.66;93548.81;5091252;28;20043;-68
2022/02/22 01:44:05;;;;;;;27.40;17.42;;;;;;;8.68;62.33;93549.56;5091279;28;20113;-69
2022/02/22 01:46:31;;;;;;;17.92;13.85;;;;;;;8.68;62.04;93536.63;5091420;28;20100;-69
2022/02/22 01:48:56;;;;;;;20.40;12.75;;;;;;;8.64;62.18;93532.72;5091332;28;20070;-69
2022/02/22 01:51:22;;;;;;;17.90;13.65;;;;;;;8.49;62.98;93540.97;5072218;28;20506;-69
2022/02/22 01:53:47;;;;;;;16.85;12.80;;;;;;;8.43;63.10;93543.31;5070936;28;20498;-68
2022/02/22 01:56:13;;;;;;;22.85;14.52;;;;;;;8.48;63.13;93549.69;5071045;28;20036;-68
2022/02/22 01:58:39;;;;;;;18.60;13.45;;;;;;;8.48;63.57;93549.69;5037571;28;20025;-69
2022/02/22 02:01:04;;;;;;;18.02;12.15;;;;;;;8.50;62.81;93540.00;5054099;28;20040;-69
2022/02/22 02:03:30;;;;;;;18.33;12.82;;;;;;;8.46;63.08;93549.00;5070658;28;20032;-68
2022/02/22 02:05:55;;;;;;;16.70;12.00;;;;;;;8.39;63.61;93562.69;5070784;28;20040;-69
2022/02/22 02:08:21;;;;;;;14.85;10.85;;;;;;;8.46;63.52;93556.78;5070660;28;20027;-70
2022/02/22 02:10:46;;;;;;;16.15;12.00;;;;;;;8.43;63.72;93567.41;5070615;28;20507;-69
2022/02/22 02:13:12;;;;;;;16.58;11.60;;;;;;;8.35;63.86;93571.66;5070525;28;20025;-68
2022/02/22 02:15:37;;;;;;;16.40;11.27;;;;;;;8.29;64.49;93575.63;5071958;28;20094;-69
2022/02/22 02:18:03;;;;;;;19.80;13.20;;;;;;;8.25;63.72;93569.13;5070552;28;20020;-69
2022/02/22 02:20:28;;;;;;;18.98;12.63;;;;;;;8.28;63.83;93574.81;5070458;28;20036;-69
2022/02/22 02:22:56;;;;;;;15.38;11.48;;;;;;;8.31;63.85;93563.38;5071595;28;20021;-68
2022/02/22 02:25:21;;;;;;;18.75;13.73;;;;;;;8.34;63.71;93568.25;5071594;28;20089;-68
2022/02/22 02:27:47;;;;;;;15.30;11.52;;;;;;;8.28;64.20;93563.66;5071468;28;20103;-68
2022/02/22 02:30:12;;;;;;;15.80;11.48;;;;;;;8.21;64.77;93562.59;5070171;28;20029;-69
2022/02/22 02:32:37;;;;;;;15.77;11.57;;;;;;;8.23;64.80;93571.03;5071420;28;20025;-68
2022/02/22 02:35:06;;;;;;;17.48;12.75;;;;;;;8.25;64.54;93577.69;5071633;28;20032;-69
2022/02/22 02:37:39;;;;;;;17.40;12.60;;;;;;;8.29;64.82;93573.84;5053327;28;20059;-68
2022/02/22 02:40:06;;;;;;;16.17;12.40;;;;;;;8.28;64.73;93566.25;5053373;28;20105;-69
2022/02/22 02:42:31;;;;;;;21.38;13.82;;;;;;;8.34;63.99;93563.09;5070220;28;20040;-69
2022/02/22 02:44:57;;;;;;;18.75;13.20;;;;;;;8.25;64.70;93566.53;5053194;28;20036;-69
2022/02/22 02:47:22;;;;;;;17.83;12.43;;;;;;;8.24;64.95;93570.88;5069983;28;20035;-68
2022/02/22 02:49:48;;;;;;;14.57;11.80;;;;;;;8.28;64.56;93574.03;5076843;28;20036;-68
2022/02/22 02:52:13;;;;;;;17.67;13.32;;;;;;;8.23;64.93;93571.84;5091416;28;20031;-68
2022/02/22 02:54:39;;;;;;;16.35;12.93;;;;;;;8.25;65.03;93571.72;5073133;28;20485;-69
2022/02/22 02:57:04;;;;;;;21.27;13.00;;;;;;;8.29;64.48;93571.28;5090026;28;20051;-70
2022/02/22 02:59:30;;;;;;;14.82;12.48;;;;;;;8.27;64.84;93569.78;5073217;28;20036;-68
2022/02/22 03:01:55;;;;;;;17.05;12.70;;;;;;;8.23;64.98;93571.03;5089911;28;20032;-69
2022/02/22 03:04:20;;;;;;;15.70;13.25;;;;;;;8.22;65.31;93575.41;5073028;28;20527;-68
2022/02/22 03:06:46;;;;;;;17.52;14.35;;;;;;;8.09;65.02;93564.56;5091104;28;20032;-69
2022/02/22 03:09:12;;;;;;;20.92;14.23;;;;;;;8.14;65.24;93567.53;5089831;28;20547;-69
2022/02/22 03:11:37;;;;;;;19.90;14.43;;;;;;;8.15;65.06;93560.59;5072954;28;20051;-68
2022/02/22 03:14:03;;;;;;;17.83;13.60;;;;;;;8.19;65.30;93560.16;5089928;28;20430;-69
2022/02/22 03:16:28;;;;;;;15.32;12.30;;;;;;;8.22;65.01;93564.25;5073104;28;20039;-68
2022/02/22 03:18:54;;;;;;;15.75;12.63;;;;;;;8.21;65.18;93570.34;5089796;28;20035;-69
2022/02/22 03:21:19;;;;;;;14.95;11.80;;;;;;;8.24;64.92;93568.28;5089925;28;20029;-69
2022/02/22 03:23:44;;;;;;;15.15;11.88;;;;;;;8.21;64.39;93563.41;5072865;28;20490;-68
2022/02/22 03:26:10;;;;;;;13.80;10.88;;;;;;;8.24;64.64;93575.25;5090892;28;20089;-69
2022/02/22 03:28:35;;;;;;;13.65;10.57;;;;;;;8.20;64.82;93577.31;5089707;28;20032;-69
2022/02/22 03:31:03;;;;;;;14.90;10.48;;;;;;;8.23;64.82;93577.03;5089774;28;20036;-68
2022/02/22 03:33:28;;;;;;;12.77;9.75;;;;;;;8.21;64.84;93575.53;5090791;28;20024;-69
2022/02/22 03:35:54;;;;;;;12.50;9.48;;;;;;;8.21;64.83;93573.75;5089691;28;20031;-69
2022/02/22 03:38:19;;;;;;;14.95;10.45;;;;;;;8.25;64.94;93579.47;5072842;28;20443;-69
2022/02/22 03:40:45;;;;;;;16.17;10.52;;;;;;;8.13;64.89;93558.13;5089563;28;20040;-69
2022/02/22 03:43:10;;;;;;;12.57;10.63;;;;;;;8.15;64.76;93569.16;5090748;28;20020;-69
2022/02/22 03:45:36;;;;;;;13.88;10.98;;;;;;;8.22;65.12;93569.41;5089527;28;20044;-69
2022/02/22 03:48:01;;;;;;;17.65;11.98;;;;;;;8.27;64.95;93565.44;5090808;28;20478;-69
2022/02/22 03:50:26;;;;;;;15.25;11.48;;;;;;;8.26;64.93;93576.72;5078106;28;20036;-69
2022/02/22 03:52:52;;;;;;;18.73;11.95;;;;;;;8.20;65.24;93576.50;5070489;28;20032;-69
2022/02/22 03:55:17;;;;;;;15.68;12.52;;;;;;;8.22;65.30;93570.22;5069311;28;20032;-68
2022/02/22 03:57:43;;;;;;;18.70;14.32;;;;;;;8.09;66.32;93574.91;5069218;28;20441;-69
2022/02/22 04:00:14;;;;;;;17.30;13.50;;;;;;;8.19;65.90;93574.84;5069221;28;20116;-68
2022/02/22 04:02:39;;;;;;;15.50;12.60;;;;;;;8.14;66.37;93577.06;5070721;28;20406;-69
2022/02/22 04:05:05;;;;;;;16.33;12.50;;;;;;;8.23;66.07;93577.03;5069205;28;20047;-69
2022/02/22 04:07:34;;;;;;;15.00;11.43;;;;;;;8.27;65.67;93572.38;5070275;28;20025;-69
2022/02/22 04:10:00;;;;;;;15.77;10.48;;;;;;;8.28;65.79;93577.41;5035714;28;20039;-68
2022/02/22 04:12:25;;;;;;;14.82;11.07;;;;;;;8.26;65.74;93566.38;5070301;28;20029;-69
2022/02/22 04:14:51;;;;;;;16.38;12.35;;;;;;;8.28;65.56;93574.03;5052337;28;20045;-69
2022/02/22 04:17:16;;;;;;;17.85;12.60;;;;;;;8.36;65.88;93579.28;5070300;28;20157;-69
2022/02/22 04:19:41;;;;;;;16.58;12.40;;;;;;;8.37;66.12;93583.50;5068867;28;20043;-69
2022/02/22 04:22:07;;;;;;;18.48;12.73;;;;;;;8.33;65.93;93582.16;5035667;28;20028;-68
2022/02/22 04:24:33;;;;;;;20.50;15.07;;;;;;;8.31;66.06;93588.44;5070115;28;20033;-69
2022/02/22 04:26:58;;;;;;;17.60;13.75;;;;;;;8.39;65.64;93599.75;5070058;28;20025;-69
2022/02/22 04:29:24;;;;;;;22.40;15.38;;;;;;;8.27;65.51;93596.50;5070112;28;20025;-68
2022/02/22 04:31:50;;;;;;;22.20;14.68;;;;;;;8.33;65.56;93602.03;5068861;28;20113;-69
2022/02/22 04:34:15;;;;;;;20.15;14.80;;;;;;;8.30;65.18;93608.31;5068844;28;20044;-68
2022/02/22 04:36:41;;;;;;;21.20;16.17;;;;;;;8.29;65.27;93611.84;5068645;28;20061;-69
2022/02/22 04:39:06;;;;;;;16.65;13.48;;;;;;;8.32;65.30;93603.81;5055119;28;20032;-69
2022/02/22 04:41:31;;;;;;;18.17;12.98;;;;;;;8.41;65.95;93615.94;5072481;28;20412;-69
2022/02/22 04:43:57;;;;;;;17.33;14.02;;;;;;;8.32;66.74;93616.75;5080140;28;20031;-70
2022/02/22 04:46:22;;;;;;;20.13;14.60;;;;;;;8.26;66.81;93627.66;5070870;28;20409;-70
2022/02/22 04:48:48;;;;;;;16.65;12.95;;;;;;;8.29;66.33;93627.38;5090231;28;20020;-68
2022/02/22 04:51:14;;;;;;;17.00;12.93;;;;;;;8.31;66.40;93635.81;5078976;28;20063;-68
2022/02/22 04:53:40;;;;;;;18.40;12.63;;;;;;;8.32;66.53;93636.63;5082946;28;20123;-68
2022/02/22 04:56:05;;;;;;;26.88;15.40;;;;;;;8.23;66.75;93628.75;5076905;28;20033;-68
2022/02/22 04:58:30;;;;;;;21.33;15.38;;;;;;;8.32;67.06;93637.44;5065391;28;20024;-68
2022/02/22 05:00:56;;;;;;;21.05;14.75;;;;;;;8.32;67.06;93634.06;5078525;28;20041;-68
2022/02/22 05:03:21;;;;;;;20.02;15.63;;;;;;;8.29;67.08;93643.72;5062983;28;20028;-69
2022/02/22 05:05:49;;;;;;;15.63;10.95;;;;;;;8.19;67.54;93648.13;5079666;28;20051;-69
2022/02/22 05:08:15;;;;;;;15.35;9.40;;;;;;;8.21;67.55;93655.72;5080882;28;20485;-69
2022/02/22 05:10:40;;;;;;;10.48;7.82;;;;;;;8.18;67.62;93651.66;5075794;28;20051;-69
2022/02/22 05:13:05;;;;;;;10.93;7.28;;;;;;;8.25;67.55;93649.34;5075477;28;20028;-69
2022/02/22 05:15:33;;;;;;;9.38;6.57;;;;;;;8.26;67.49;93674.25;5079918;28;20047;-69
2022/02/22 05:18:02;;;;;;;6.57;5.00;;;;;;;8.24;67.60;93669.19;5084393;28;20032;-69
2022/02/22 05:20:27;;;;;;;9.65;5.10;;;;;;;8.23;67.92;93679.69;5065048;28;20032;-69
2022/02/22 05:22:53;;;;;;;8.77;5.20;;;;;;;8.16;68.21;93691.56;5079602;28;20280;-70
2022/02/22 05:25:18;;;;;;;7.40;5.38;;;;;;;8.12;68.06;93687.63;5071303;28;20038;-69
2022/02/22 05:27:44;;;;;;;7.45;5.22;;;;;;;8.12;68.25;93692.81;5070080;28;20036;-69
2022/02/22 05:30:10;;;;;;;7.28;4.90;;;;;;;7.99;69.24;93687.91;5079894;28;20679;-69
2022/02/22 05:32:36;;;;;;;8.77;5.30;;;;;;;7.97;69.44;93695.00;5087425;28;20048;-69
2022/02/22 05:35:02;;;;;;;9.32;5.50;;;;;;;7.97;70.04;93689.84;5055055;28;20434;-69
2022/02/22 05:37:28;;;;;;;7.43;6.10;;;;;;;7.94;70.45;93683.16;5082906;28;20573;-69
2022/02/22 05:39:55;;;;;;;7.05;5.85;;;;;;;7.99;70.61;93686.13;5077703;28;20024;-69
2022/02/22 05:42:24;;;;;;;9.18;6.00;;;;;;;8.01;70.39;93689.41;5080388;28;20028;-69
2022/02/22 05:44:49;;;;;;;8.00;5.57;;;;;;;8.07;70.73;93701.78;5077198;28;20064;-69
2022/02/22 05:47:15;;;;;;;9.55;6.70;;;;;;;8.12;70.51;93698.78;5070947;28;20032;-69
2022/02/22 05:49:40;;;;;;;9.05;6.43;;;;;;;8.11;71.12;93692.00;5058150;28;20028;-69
2022/02/22 05:52:06;;;;;;;7.65;5.75;;;;;;;8.14;71.24;93691.72;5085233;28;20035;-70
2022/02/22 05:54:32;;;;;;;7.95;5.80;;;;;;;8.10;71.62;93692.94;5091007;28;20107;-69
2022/02/22 05:56:57;;;;;;;8.15;5.93;;;;;;;8.13;71.79;93699.59;5087068;28;20028;-69
2022/02/22 05:59:22;;;;;;;8.15;6.72;;;;;;;8.05;72.57;93695.94;5088470;28;20035;-69
2022/02/22 06:01:48;;;;;;;10.45;6.47;;;;;;;8.05;72.37;93692.53;5085444;28;20043;-69
2022/02/22 06:04:13;;;;;;;8.32;6.40;;;;;;;7.99;73.06;93698.25;5067705;28;20047;-69
2022/02/22 06:06:39;;;;;;;9.98;6.13;;;;;;;7.97;73.27;93695.81;5086921;28;20039;-69
2022/02/22 06:09:04;;;;;;;6.32;5.18;;;;;;;7.92;74.19;93695.41;5061646;28;20032;-70
2022/02/22 06:11:30;;;;;;;7.40;5.40;;;;;;;7.86;74.04;93697.75;5086465;28;20444;-69
2022/02/22 06:13:55;;;;;;;7.47;4.95;;;;;;;7.90;74.22;93704.25;5051748;28;20070;-69
2022/02/22 06:16:20;;;;;;;7.35;4.57;;;;;;;7.85;73.32;93686.56;5075195;28;20036;-70
2022/02/22 06:18:46;;;;;;;9.00;6.18;;;;;;;7.72;74.11;93692.03;5081787;28;20024;-70
2022/02/22 06:21:11;;;;;;;7.85;5.50;;;;;;;7.82;74.02;93704.94;5080721;28;20039;-69
2022/02/22 06:23:37;;;;;;;8.50;5.90;;;;;;;7.83;74.26;93701.41;5084454;28;20038;-70
2022/02/22 06:26:02;;;;;;;7.82;5.40;;;;;;;7.78;73.87;93707.00;5086935;28;20484;-70
2022/02/22 06:28:28;;;;;;;8.48;5.35;;;;;;;7.75;74.13;93711.63;5072255;28;20028;-70
2022/02/22 06:30:53;;;;;;;7.28;5.30;;;;;;;7.73;73.55;93708.34;5083012;28;20560;-70
2022/02/22 06:33:18;;;;;;;5.72;4.35;;;;;;;7.84;74.24;93711.63;5088665;28;20024;-70
2022/02/22 06:35:44;;;;;;;5.95;4.45;;;;;;;7.90;74.38;93710.25;5083052;28;20489;-69
2022/02/22 06:38:09;;;;;;;7.80;4.65;;;;;;;7.87;74.65;93707.13;5079716;28;20390;-70
2022/02/22 06:40:36;;;;;;;6.93;5.53;;;;;;;7.90;74.30;93706.84;5081546;28;20429;-70
2022/02/22 06:43:02;;;;;;;8.30;5.55;;;;;;;7.89;74.48;93698.28;5066983;28;20129;-69
2022/02/22 06:45:27;;;;;;;7.30;5.40;;;;;;;7.94;73.97;93706.44;5084681;28;20035;-69
2022/02/22 06:47:53;;;;;;;9.02;5.85;;;;;;;8.02;74.34;93700.56;5087616;28;20020;-69
2022/02/22 06:50:18;;;;;;;7.72;5.95;;;;;;;8.16;73.87;93694.97;5084039;28;20032;-69
2022/02/22 06:52:44;;;;;;;8.50;4.60;;;;;;;8.18;73.16;93697.41;5084912;28;20551;-69
2022/02/22 06:55:10;;;;;;;7.20;4.63;;;;;;;8.24;71.58;93697.66;5081129;28;20542;-72
2022/02/22 06:58:06;;;;;;;7.93;5.38;;;;;;;8.21;72.19;93702.31;5068081;28;20419;-71
2022/02/22 07:00:32;;;;;;;7.57;5.03;;;;;;;8.20;72.28;93706.66;5081093;28;20037;-69
2022/02/22 07:02:57;;;;;;;6.45;4.50;;;;;;;8.31;70.99;93708.28;5071537;28;20024;-70
2022/02/22 07:05:23;;;;;;;7.80;5.20;;;;;;;8.20;72.88;93705.84;5075512;28;20036;-70
2022/02/22 07:07:49;;;;;;;6.97;4.45;;;;;;;8.23;72.83;93708.16;5081644;28;20399;-71
2022/02/22 07:10:15;;;;;;;6.65;3.88;;;;;;;8.26;71.05;93705.28;5089825;28;20502;-71
2022/02/22 07:12:40;;;;;;;6.28;3.53;;;;;;;8.30;71.38;93696.28;5090758;28;20023;-71
2022/02/22 07:15:06;;;;;;;4.68;3.50;;;;;;;8.41;69.91;93693.59;5064544;28;20044;-67
2022/02/22 07:17:31;;;;;;;7.57;4.32;;;;;;;8.38;71.20;93696.38;5086872;28;20052;-70
2022/02/22 07:19:57;;;;;;;9.00;4.90;;;;;;;8.33;71.51;93690.84;5088954;28;20032;-68
2022/02/22 07:22:22;;;;;;;8.40;6.05;;;;;;;8.32;71.53;93698.75;5076455;28;20032;-68
2022/02/22 07:24:48;;;;;;;8.13;4.90;;;;;;;8.41;69.47;93693.59;5077280;28;20085;-68
2022/02/22 07:27:13;;;;;;;10.32;6.05;;;;;;;8.40;70.44;93689.34;5052832;28;20040;-68
2022/02/22 07:29:39;;;;;;;7.72;5.13;;;;;;;8.44;70.02;93684.69;5080285;28;20040;-68
2022/02/22 07:32:05;;;;;;;6.47;5.00;;;;;;;8.48;69.76;93689.44;5070545;28;20031;-69
2022/02/22 07:34:30;;;;;;;6.28;5.20;;;;;;;8.49;69.91;93698.84;5086928;28;20116;-70
2022/02/22 07:36:55;;;;;;;6.88;4.70;;;;;;;8.49;69.54;93700.63;5080776;28;20059;-69
2022/02/22 07:39:21;;;;;;;8.93;6.13;;;;;;;8.45;70.62;93707.84;5055021;28;20521;-69
2022/02/22 07:41:46;;;;;;;8.38;6.90;;;;;;;8.50;70.71;93713.44;5085154;28;20036;-69
2022/02/22 07:44:12;;;;;;;10.10;7.00;;;;;;;8.59;71.32;93710.94;5083714;28;20482;-69
2022/02/22 07:46:37;;;;;;;7.00;5.80;;;;;;;8.55;71.17;93717.34;5086142;28;20501;-69
2022/02/22 07:49:03;;;;;;;7.50;5.30;;;;;;;8.50;70.84;93708.25;5085976;28;20298;-69
2022/02/22 07:51:28;;;;;;;8.52;6.00;;;;;;;8.46;70.72;93703.50;5080224;28;20043;-69
2022/02/22 07:53:54;;;;;;;7.22;5.78;;;;;;;8.38;70.81;93698.16;5080889;28;20502;-69
2022/02/22 07:56:20;;;;;;;5.50;4.65;;;;;;;8.42;70.38;93705.56;5072708;28;20033;-69
2022/02/22 07:58:45;;;;;;;5.93;4.80;;;;;;;8.35;70.55;93709.63;5080045;28;20040;-69
2022/02/22 08:01:11;;;;;;;6.28;4.63;;;;;;;8.36;70.75;93706.09;5063380;28;20043;-69
2022/02/22 08:03:36;;;;;;;6.45;5.18;;;;;;;8.46;71.10;93701.72;5064958;28;20024;-69
2022/02/22 08:06:02;;;;;;;6.35;4.28;;;;;;;8.52;71.49;93707.28;5061187;28;20402;-69
2022/02/22 08:08:27;;;;;;;4.93;3.60;;;;;;;8.56;70.64;93708.66;5073462;28;20567;-70
2022/02/22 08:10:53;;;;;;;6.43;5.00;;;;;;;8.62;70.59;93695.94;5085984;28;20077;-70
2022/02/22 08:13:18;;;;;;;8.38;7.22;;;;;;;8.71;71.29;93702.84;5082218;28;20040;-69
2022/02/22 08:15:44;;;;;;;7.60;5.88;;;;;;;8.79;69.71;93698.75;5051237;28;20081;-68
2022/02/22 08:18:10;;;;;;;5.90;4.93;;;;;;;8.83;69.50;93703.50;5076492;28;20028;-70
2022/02/22 08:20:35;;;;;;;5.82;5.13;;;;;;;8.93;68.99;93711.22;5049779;28;20039;-69
2022/02/22 08:23:01;;;;;;;6.38;5.72;;;;;;;8.92;68.36;93707.81;5092137;28;20406;-68
2022/02/22 08:25:27;;;;;;;5.50;4.82;;;;;;;9.02;68.20;93704.34;5090938;28;20039;-69
2022/02/22 08:27:52;;;;;;;7.07;5.25;;;;;;;9.10;68.07;93709.63;5091072;28;20482;-69
2022/02/22 08:30:18;;;;;;;5.20;4.30;;;;;;;9.22;68.53;93712.81;5089222;28;20028;-69
2022/02/22 08:32:43;;;;;;;4.25;3.08;;;;;;;9.25;65.83;93708.19;5091595;28;20024;-69
2022/02/22 08:35:09;;;;;;;4.65;3.53;;;;;;;9.19;66.73;93719.09;5090062;28;20036;-69
2022/02/22 08:37:34;;;;;;;4.78;3.30;;;;;;;9.28;66.69;93718.25;5090482;28;20105;-69
2022/02/22 08:40:00;;;;;;;3.58;2.63;;;;;;;9.34;65.17;93717.66;5090557;28;20044;-68
2022/02/22 08:42:26;;;;;;;3.28;2.85;;;;;;;9.38;66.58;93721.59;5090008;28;20046;-69
2022/02/22 08:44:53;;;;;;;3.47;3.08;;;;;;;9.40;66.70;93727.44;5090024;28;20493;-68
2022/02/22 08:47:18;;;;;;;2.97;2.47;;;;;;;9.40;66.24;93727.44;5087951;28;20031;-69
2022/02/22 08:49:46;;;;;;;2.97;2.65;;;;;;;9.44;66.42;93724.56;5080641;28;20040;-69
2022/02/22 08:52:11;;;;;;;3.47;2.47;;;;;;;9.47;65.46;93724.25;5085764;28;20047;-69
2022/02/22 08:54:37;;;;;;;3.50;2.80;;;;;;;9.46;66.04;93725.25;5090993;28;20032;-69
2022/02/22 08:57:02;;;;;;;4.10;2.95;;;;;;;9.53;66.45;93728.88;5086142;28;20024;-68
2022/02/22 08:59:28;;;;;;;3.10;2.70;;;;;;;9.59;66.12;93723.91;5090020;28;20044;-69
2022/02/22 09:01:53;;;;;;;3.80;2.85;;;;;;;9.63;65.38;93734.81;5085399;28;20031;-68
2022/02/22 09:04:19;;;;;;;3.70;2.90;;;;;;;9.66;64.93;93731.91;5089895;28;20417;-69
2022/02/22 09:06:44;;;;;;;3.95;3.00;;;;;;;9.73;63.57;93735.56;5087673;28;20411;-69
2022/02/22 09:09:10;;;;;;;4.88;4.03;;;;;;;9.76;62.92;93735.25;5090367;28;20519;-69
2022/02/22 09:11:35;;;;;;;3.58;2.80;;;;;;;9.66;64.52;93742.28;5090061;28;20032;-69
2022/02/22 09:14:01;;;;;;;3.30;2.78;;;;;;;9.74;64.00;93755.31;5089953;28;20031;-69
2022/02/22 09:16:26;;;;;;;4.97;3.60;;;;;;;9.74;63.19;93755.31;5087183;28;20024;-69
2022/02/22 09:18:53;;;;;;;5.95;3.47;;;;;;;9.69;63.46;93749.75;5091989;28;20413;-69
2022/02/22 09:21:19;;;;;;;7.03;4.40;;;;;;;9.69;64.05;93761.91;5085041;28;20401;-68
2022/02/22 09:23:44;;;;;;;9.00;6.00;;;;;;;9.78;64.23;93767.06;5090359;28;20024;-69
2022/02/22 09:26:10;;;;;;;11.90;7.22;;;;;;;9.69;64.39;93773.09;5088903;28;20394;-69
2022/02/22 09:28:36;;;;;;;10.60;7.63;;;;;;;9.66;64.68;93770.81;5090128;28;20343;-69
2022/02/22 09:31:01;;;;;;;10.75;7.70;;;;;;;9.68;64.76;93768.09;5087430;28;20040;-69
2022/02/22 09:33:26;;;;;;;8.45;6.93;;;;;;;9.63;64.21;93771.09;5090160;28;20031;-69
2022/02/22 09:35:52;;;;;;;9.15;7.03;;;;;;;9.56;64.34;93775.25;5085437;28;20544;-70
2022/02/22 09:38:17;;;;;;;8.57;7.32;;;;;;;9.50;63.73;93768.88;5077748;28;20565;-69
2022/02/22 09:40:43;;;;;;;8.43;7.10;;;;;;;9.46;64.24;93764.13;5087727;28;20074;-69
2022/02/22 09:43:08;;;;;;;11.98;9.57;;;;;;;9.45;64.86;93768.50;5088617;28;20020;-68
2022/02/22 09:45:34;;;;;;;14.77;11.90;;;;;;;9.43;65.07;93777.38;5088341;28;20039;-69
2022/02/22 09:48:04;;;;;;;44.10;23.75;;;;;;;9.26;65.83;93778.97;5089164;28;20311;-69
2022/02/22 09:50:29;;;;;;;22.90;15.65;;;;;;;9.23;67.22;93785.25;5089114;28;20051;-69
2022/02/22 09:52:55;;;;;;;21.67;13.15;;;;;;;8.98;68.26;93804.03;5088819;28;20031;-69
2022/02/22 09:55:20;;;;;;;13.70;10.23;;;;;;;8.90;69.02;93805.56;5079659;28;20037;-69
2022/02/22 09:57:45;;;;;;;11.48;8.50;;;;;;;8.73;68.43;93806.28;5089931;28;20028;-69
2022/02/22 10:00:18;;;;;;;10.50;7.65;;;;;;;8.17;67.83;93809.63;5068300;28;20039;-69
2022/02/22 10:02:44;;;;;;;9.18;7.25;;;;;;;8.19;69.60;93824.06;5088323;28;20038;-69
2022/02/22 10:05:19;;;;;;;9.75;8.00;;;;;;;7.91;68.68;93819.66;5087838;28;20348;-69
2022/02/22 10:07:49;;;;;;;20.15;12.20;;;;;;;7.79;69.25;93821.56;5081976;28;20028;-69
2022/02/22 10:10:14;;;;;;;12.52;8.90;;;;;;;7.53;69.98;93824.66;5076589;28;20032;-68
2022/02/22 10:12:40;;;;;;;16.15;10.90;;;;;;;7.45;70.17;93829.66;5088314;28;20086;-69
2022/02/22 10:15:07;;;;;;;11.13;7.57;;;;;;;7.36;70.48;93831.28;5073026;28;20032;-69
2022/02/22 10:17:36;;;;;;;10.65;7.15;;;;;;;7.34;70.79;93833.16;5085098;28;20027;-69
2022/02/22 10:20:03;;;;;;;15.50;8.90;;;;;;;7.13;69.99;93840.16;5088091;28;20036;-69
2022/02/22 10:22:31;;;;;;;7.20;5.55;;;;;;;7.11;70.32;93844.66;5086541;28;20025;-69
2022/02/22 10:25:04;;;;;;;6.78;6.07;;;;;;;6.91;70.22;93847.13;5089317;28;20036;-69
2022/02/22 10:27:49;;;;;;;5.70;4.47;;;;;;;6.98;69.92;93842.28;5083351;28;20035;-68
2022/02/22 10:30:39;;;;;;;4.97;3.83;;;;;;;6.82;69.51;93854.81;5063330;28;20543;-68
2022/02/22 10:33:25;;;;;;;5.37;4.20;;;;;;;6.84;70.90;93878.75;5075574;28;20027;-68
2022/02/22 10:35:52;;;;;;;5.38;3.15;;;;;;;6.67;69.04;93865.47;5086527;28;20032;-69
2022/02/22 10:38:21;;;;;;;4.43;2.70;;;;;;;6.47;68.75;93869.69;5071653;28;20066;-69
2022/02/22 10:40:56;;;;;;;5.13;3.58;;;;;;;6.28;68.79;93859.22;5087257;28;20028;-69
2022/02/22 10:43:27;;;;;;;14.80;11.90;;;;;;;5.89;69.80;93874.34;5088972;28;20024;-68
2022/02/22 10:45:55;;;;;;;6.80;5.97;;;;;;;5.86;69.85;93873.78;5086019;28;20820;-68
2022/02/22 10:48:31;;;;;;;89.20;36.33;;;;;;;5.70;70.32;93869.81;5069632;28;20056;-69
2022/02/22 10:50:57;;;;;;;15.68;9.50;;;;;;;5.60;69.72;93871.50;5081026;28;20080;-69
2022/02/22 10:53:34;;;;;;;11.77;8.77;;;;;;;5.35;70.21;93870.00;5066806;28;20119;-68
2022/02/22 10:56:00;;;;;;;4.53;3.63;;;;;;;5.19;70.70;93872.94;5081389;28;20501;-68
2022/02/22 10:58:26;;;;;;;4.00;3.47;;;;;;;5.07;70.36;93876.44;5071972;28;20042;-69
2022/02/22 11:00:52;;;;;;;10.43;7.78;;;;;;;5.06;70.95;93874.81;5087947;28;20036;-68
2022/02/22 11:03:19;;;;;;;6.90;4.82;;;;;;;5.13;71.72;93871.66;5086657;28;20016;-69
2022/02/22 11:05:46;;;;;;;5.18;3.65;;;;;;;4.95;71.26;93878.19;5088290;28;20024;-69
2022/02/22 11:08:11;;;;;;;6.63;4.28;;;;;;;4.93;71.06;93883.47;5087446;28;20478;-69
2022/02/22 11:10:37;;;;;;;6.20;4.68;;;;;;;4.85;72.65;93883.22;5079308;28;20033;-68
2022/02/22 11:13:02;;;;;;;5.80;4.20;;;;;;;4.85;72.51;93880.66;5064805;28;20081;-70
2022/02/22 11:15:39;;;;;;;3.92;3.00;;;;;;;4.80;72.48;93872.44;5051951;28;20039;-69
2022/02/22 11:18:15;;;;;;;4.03;3.25;;;;;;;4.53;71.82;93877.06;5067832;28;20032;-69
2022/02/22 11:20:41;;;;;;;6.97;4.97;;;;;;;4.43;72.46;93875.19;5087415;28;20130;-69
2022/02/22 11:23:09;;;;;;;5.30;4.25;;;;;;;4.57;72.47;93873.31;5067976;28;20483;-69
2022/02/22 11:25:36;;;;;;;5.82;4.93;;;;;;;4.33;73.17;93875.97;5087095;28;20055;-69
2022/02/22 11:28:05;;;;;;;13.60;7.95;;;;;;;4.42;73.31;93888.97;5088197;28;20039;-69
2022/02/22 11:30:31;;;;;;;10.45;7.47;;;;;;;4.43;73.04;93882.06;5076106;28;20036;-69